Kezdőlap
METAR-TAF:

METAR-TAF

Repülőterek :

Southern Wisconsin Regional Airport

Janesville, Wisconsin, Amerikai Egyesült Államok

földrajzi szélesség: 42-37N, földrajzi hosszúság: 089-02W, magasság: 246 m

Jelenlegi meteorológiai megfigyelések

A jelentés 21 perccel ezelõtt készült, 09:35 UTC
Szélcsend
Hőmérséklet 5°C
Páratartalom 100%
Légköri nyomás 1002 hPa
Látótávolság: 1.6 km
Borult 400 lábon
Párásság

METAR: KJVL 090935Z AUTO 00000KT 1SM BR OVC004 05/05 A2959 RMK AO2

Idő: 03:56 (09:56 UTC)


TAF: hiányzik

Meteorológiai megfigyelések és előrejelzések több, mint 4000 repülőtéren (METAR és TAF jelentéseket).

A térképen piros és sárga pontok jelzik az elérhető meteorológiai állomásokat.

Mozgassa az egeret a pont fölött, hogy megjelenjen az állomás neve.

Azután kattintson az időjárási megfigyelések és előrejelzések megtekintéséhez.

A térkép megváltoztatása: kattintson a fekete keresztel jelölt zöld gombra ráközelítéshez, a vonallal jelölt zöld gombra távolításhoz, vagy a zöld nyilakra a szomszédos térképek eléréséhez.


METAR-TAF: